South River, Missouri
Current Conditions -  °F | °C
As of 5:54 PM on Saturday 22 Nov 2014 (Local Time) from KUIN Reporting Station
Overcast Overcast  
Wind Chill: 56°   Ceiling: 2600
Heat Index: 56°   Visibility: 10mi
Dew Point: 48°   Wind: 10mph
Humidity: 75%   Direction: 180°S
Pressure: 29.86"   Gusts: NA
Location:  39.7865°N, 91.559°W
Report Text: KUIN 222354Z AUTO 18009KT 10SM BKN026 OVC049 13/09 A2986 RMK AO2 SLP111 T01330089 10144 20133 56004
Loading
Personal Weather Stations






























Interactive Weather Map New forecast layout! Learn more

10-Day Weather Forecast

Advertisements
Track Severe Weather on mobile